createdAt,value
2023-02-22T00:02:03.626Z,14.6
2023-02-22T00:07:47.918Z,14.6
2023-02-22T00:13:32.174Z,13.9
2023-02-22T00:19:15.907Z,13.8
2023-02-22T00:24:59.619Z,13.5
2023-02-22T00:30:43.816Z,12.2
2023-02-22T00:36:27.599Z,12.2
2023-02-22T00:42:12.600Z,11.1
2023-02-22T00:47:56.653Z,11.3
2023-02-22T00:53:40.449Z,11.7
2023-02-22T00:59:24.307Z,10.6
2023-02-22T01:05:08.535Z,11.6
2023-02-22T01:10:52.302Z,12.2
2023-02-22T01:16:36.215Z,10.5
2023-02-22T01:22:20.172Z,9.6
2023-02-22T01:28:04.316Z,9.9
2023-02-22T01:33:48.095Z,11.3
2023-02-22T01:39:31.868Z,9.8
2023-02-22T01:45:26.757Z,9.9
2023-02-22T01:51:12.146Z,9
2023-02-22T01:57:00.795Z,9.3
2023-02-22T02:02:46.511Z,10
2023-02-22T02:08:33.510Z,10.4
2023-02-22T02:14:17.295Z,9.8
2023-02-22T02:20:05.951Z,11.7
2023-02-22T02:26:00.745Z,10.3
2023-02-22T02:31:56.478Z,11
2023-02-22T02:37:45.356Z,10.7
2023-02-22T02:43:32.417Z,11.4
2023-02-22T02:49:19.515Z,10.7
2023-02-22T02:55:03.408Z,10.7
2023-02-22T03:00:47.843Z,11.7
2023-02-22T03:06:40.795Z,11.3
2023-02-22T03:12:30.862Z,10.7
2023-02-22T03:18:18.269Z,11.7
2023-02-22T03:24:07.476Z,11.3
2023-02-22T03:29:53.630Z,11.1
2023-02-22T03:35:40.702Z,11.4
2023-02-22T03:41:25.815Z,11.3
2023-02-22T03:47:12.279Z,11.9
2023-02-22T03:52:56.151Z,13.5
2023-02-22T03:58:43.361Z,12
2023-02-22T04:04:27.903Z,11.2
2023-02-22T04:10:11.778Z,12.6
2023-02-22T04:15:55.908Z,12.4
2023-02-22T04:21:39.770Z,12.2
2023-02-22T04:27:23.553Z,12.2
2023-02-22T04:33:07.138Z,12.8
2023-02-22T04:38:51.176Z,11.4
2023-02-22T04:44:34.912Z,12
2023-02-22T04:50:18.778Z,12.5
2023-02-22T04:56:04.513Z,11.7
2023-02-22T05:01:48.382Z,11.1
2023-02-22T05:07:32.024Z,12
2023-02-22T05:13:15.774Z,12.4
2023-02-22T05:18:59.743Z,12.2
2023-02-22T05:24:43.689Z,9.8
2023-02-22T05:30:29.605Z,10.7
2023-02-22T05:36:13.735Z,10.7
2023-02-22T05:41:57.263Z,11.8
2023-02-22T05:47:41.811Z,11.4
2023-02-22T05:53:26.503Z,12.9
2023-02-22T05:59:10.153Z,11.1
2023-02-22T06:04:53.979Z,11.9
2023-02-22T06:10:37.729Z,12.1
2023-02-22T06:16:21.552Z,12.5
2023-02-22T06:22:05.207Z,11.8
2023-02-22T06:27:49.130Z,13.1
2023-02-22T06:33:33.174Z,12.1
2023-02-22T06:39:17.335Z,12.9
2023-02-22T06:45:01.183Z,15
2023-02-22T06:50:45.303Z,13
2023-02-22T06:56:30.140Z,13.2
2023-02-22T07:02:14.503Z,14.1
2023-02-22T07:08:03.222Z,13.9
2023-02-22T07:13:53.177Z,14
2023-02-22T07:19:37.110Z,13.2
2023-02-22T07:25:21.479Z,14
2023-02-22T07:31:06.158Z,12
2023-02-22T07:36:50.067Z,12
2023-02-22T07:42:34.533Z,13.2
2023-02-22T07:48:20.199Z,12.8
2023-02-22T07:54:03.819Z,12.2
2023-02-22T07:59:47.858Z,12.3
2023-02-22T08:05:32.218Z,14.5
2023-02-22T08:11:16.932Z,13.7
2023-02-22T08:17:01.023Z,26.7
2023-02-22T08:22:45.205Z,14.7
2023-02-22T08:28:28.981Z,17.7
2023-02-22T08:34:13.282Z,16.4
2023-02-22T08:39:56.974Z,16
2023-02-22T08:45:40.891Z,21.9
2023-02-22T08:51:25.896Z,16.9
2023-02-22T08:57:11.604Z,20
2023-02-22T09:02:55.707Z,18.4
2023-02-22T09:08:39.616Z,18.5
2023-02-22T09:14:23.325Z,14.7
2023-02-22T09:20:07.703Z,23.4
2023-02-22T09:25:51.787Z,16.5
2023-02-22T09:31:37.346Z,15.3
2023-02-22T09:37:21.519Z,15.6
2023-02-22T09:43:12.640Z,12.9
2023-02-22T09:49:08.468Z,17.7
2023-02-22T09:54:55.008Z,19
2023-02-22T10:00:43.219Z,14.1
2023-02-22T10:06:28.009Z,15.1
2023-02-22T10:12:14.643Z,14.9
2023-02-22T10:18:03.915Z,19.6
2023-02-22T10:23:51.871Z,13.2
2023-02-22T10:29:40.917Z,16.5
2023-02-22T10:35:27.665Z,13.1
2023-02-22T10:41:20.238Z,12.5
2023-02-22T10:47:07.753Z,14.6
2023-02-22T10:52:51.681Z,14.2
2023-02-22T10:58:40.630Z,14.5
2023-02-22T11:04:25.912Z,14
2023-02-22T11:10:11.056Z,11.7
2023-02-22T11:15:55.654Z,16.9
2023-02-22T11:21:41.685Z,12.7
2023-02-22T11:27:34.806Z,15.5
2023-02-22T11:33:25.423Z,24.3
2023-02-22T11:39:14.658Z,22.9
2023-02-22T11:45:09.567Z,20.8
2023-02-22T11:51:00.818Z,18.7
2023-02-22T11:56:47.491Z,16.3
2023-02-22T12:02:58.538Z,15.7
2023-02-22T12:08:47.877Z,21
2023-02-22T12:14:36.930Z,18.7
2023-02-22T12:20:22.994Z,15.2
2023-02-22T12:26:12.766Z,15
2023-02-22T12:31:58.551Z,16.2
2023-02-22T12:37:51.923Z,14.4
2023-02-22T12:43:40.764Z,15.9
2023-02-22T12:49:28.558Z,15.6
2023-02-22T12:55:17.067Z,14.9
2023-02-22T13:01:09.107Z,16.1
2023-02-22T13:06:57.950Z,15.6
2023-02-22T13:12:50.732Z,15.7
2023-02-22T13:18:38.950Z,16
2023-02-22T13:24:26.514Z,15.6
2023-02-22T13:30:17.232Z,16
2023-02-22T13:36:19.171Z,17
2023-02-22T13:42:14.910Z,16.9
2023-02-22T13:48:13.559Z,14.6
2023-02-22T13:54:04.046Z,16.4
2023-02-22T13:59:49.195Z,14.5
2023-02-22T14:05:49.167Z,15.9
2023-02-22T14:11:53.230Z,16.7
2023-02-22T14:17:38.488Z,16.9
2023-02-22T14:23:37.440Z,16.5
2023-02-22T14:29:21.924Z,17.5
2023-02-22T14:35:28.534Z,17.7
2023-02-22T14:41:12.142Z,18.6
2023-02-22T14:46:59.311Z,21
2023-02-22T14:52:45.714Z,21.5
2023-02-22T14:58:36.339Z,20.3
2023-02-22T15:04:24.863Z,18.4
2023-02-22T15:10:16.509Z,21.5
2023-02-22T15:16:04.600Z,19.3
2023-02-22T15:21:51.618Z,21.6
2023-02-22T15:27:36.183Z,20.3
2023-02-22T15:33:22.953Z,22.5
2023-02-22T15:39:07.539Z,21.8
2023-02-22T15:44:52.232Z,21.7
2023-02-22T15:50:37.469Z,22.2
2023-02-22T15:56:26.182Z,22
2023-02-22T16:02:16.707Z,25.7
2023-02-22T16:08:00.740Z,25.9
2023-02-22T16:13:44.862Z,28
2023-02-22T16:19:32.326Z,29.9
2023-02-22T16:25:26.298Z,27.9
2023-02-22T16:31:11.769Z,27.6
2023-02-22T16:36:57.152Z,29.7
2023-02-22T16:42:40.809Z,29.2
2023-02-22T16:48:25.992Z,32
2023-02-22T16:54:12.163Z,33.3
2023-02-22T16:59:55.878Z,33.6
2023-02-22T17:05:41.917Z,32.6
2023-02-22T17:11:26.010Z,34.9
2023-02-22T17:17:09.845Z,33.3
2023-02-22T17:22:53.624Z,33.2
2023-02-22T17:28:37.266Z,32.7
2023-02-22T17:34:21.003Z,34.8
2023-02-22T17:40:04.817Z,34.6
2023-02-22T17:45:49.836Z,36.9
2023-02-22T17:51:33.571Z,35
2023-02-22T17:57:17.353Z,32.8
2023-02-22T18:03:01.982Z,31.2
2023-02-22T18:08:46.412Z,36.3
2023-02-22T18:14:30.156Z,36.4
2023-02-22T18:20:14.510Z,34.4
2023-02-22T18:26:15.183Z,34.8
2023-02-22T18:31:59.248Z,34
2023-02-22T18:37:42.895Z,32.5
2023-02-22T18:43:26.856Z,34.7
2023-02-22T18:49:13.008Z,32.9
2023-02-22T18:54:56.741Z,32.9
2023-02-22T19:00:40.655Z,32.8
2023-02-22T19:06:24.551Z,32
2023-02-22T19:12:08.923Z,33.3
2023-02-22T19:17:53.088Z,31.9
2023-02-22T19:23:40.790Z,33.7
2023-02-22T19:29:24.568Z,32.1
2023-02-22T19:35:11.637Z,34.8
2023-02-22T19:40:56.515Z,33
2023-02-22T19:46:40.638Z,33.3
2023-02-22T19:52:25.774Z,31.4
2023-02-22T19:58:09.857Z,32.6
2023-02-22T20:03:54.194Z,32.7
2023-02-22T20:09:38.451Z,32
2023-02-22T20:15:23.106Z,31.6
2023-02-22T20:21:08.415Z,32.5
2023-02-22T20:26:52.674Z,30.6
2023-02-22T20:32:38.201Z,32.1
2023-02-22T20:38:22.056Z,30.4
2023-02-22T20:44:07.447Z,29.8
2023-02-22T20:49:53.006Z,31
2023-02-22T20:55:36.674Z,31.6
2023-02-22T21:01:22.858Z,29.4
2023-02-22T21:07:08.879Z,31.2
2023-02-22T21:12:58.834Z,30
2023-02-22T21:18:44.149Z,29
2023-02-22T21:24:29.341Z,28.2
2023-02-22T21:30:14.234Z,28.7
2023-02-22T21:35:57.727Z,29
2023-02-22T21:41:43.505Z,29
2023-02-22T21:47:29.303Z,28.5
2023-02-22T21:53:12.852Z,28
2023-02-22T21:59:00.500Z,27.4
2023-02-22T22:04:44.246Z,28
2023-02-22T22:10:28.034Z,30.2
2023-02-22T22:16:13.156Z,26.9
2023-02-22T22:21:57.066Z,27.8
2023-02-22T22:27:40.781Z,25.8
2023-02-22T22:33:24.712Z,25.1
2023-02-22T22:39:08.427Z,26.5
2023-02-22T22:44:52.333Z,27.3
2023-02-22T22:50:36.013Z,24.3
2023-02-22T22:56:20.344Z,25.7
2023-02-22T23:02:03.999Z,25
2023-02-22T23:07:47.597Z,24.2
2023-02-22T23:13:31.211Z,23.8
2023-02-22T23:19:15.261Z,24.9
2023-02-22T23:25:00.284Z,25.3
2023-02-22T23:30:44.555Z,23.1
2023-02-22T23:36:29.042Z,23.6
2023-02-22T23:42:12.679Z,24.9
2023-02-22T23:47:57.973Z,21.9
2023-02-22T23:53:43.228Z,23.5
2023-02-22T23:59:27.297Z,23.7
